sensor_id;sensor_type;location;lat;lon;timestamp;P1;durP1;ratioP1;P2;durP2;ratioP2
27704;SDS011;15109;50.992;6.918;2022-12-07T00:01:11;7.88;;;4.43;;
27704;SDS011;15109;50.992;6.918;2022-12-07T00:04:35;9.25;;;5.38;;
27704;SDS011;15109;50.992;6.918;2022-12-07T00:07:56;7.63;;;4.78;;
27704;SDS011;15109;50.992;6.918;2022-12-07T00:11:18;9.00;;;4.55;;
27704;SDS011;15109;50.992;6.918;2022-12-07T00:14:40;12.82;;;6.55;;
27704;SDS011;15109;50.992;6.918;2022-12-07T00:18:01;9.70;;;4.97;;
27704;SDS011;15109;50.992;6.918;2022-12-07T00:21:23;13.70;;;6.00;;
27704;SDS011;15109;50.992;6.918;2022-12-07T00:28:09;9.68;;;4.90;;
27704;SDS011;15109;50.992;6.918;2022-12-07T00:31:33;7.18;;;4.55;;
27704;SDS011;15109;50.992;6.918;2022-12-07T00:34:59;10.68;;;5.05;;
27704;SDS011;15109;50.992;6.918;2022-12-07T00:38:20;11.00;;;5.68;;
27704;SDS011;15109;50.992;6.918;2022-12-07T00:41:41;8.00;;;4.32;;
27704;SDS011;15109;50.992;6.918;2022-12-07T00:45:02;11.18;;;5.15;;
27704;SDS011;15109;50.992;6.918;2022-12-07T00:48:24;11.10;;;5.38;;
27704;SDS011;15109;50.992;6.918;2022-12-07T00:51:45;12.45;;;5.50;;
27704;SDS011;15109;50.992;6.918;2022-12-07T00:55:09;10.52;;;4.82;;
27704;SDS011;15109;50.992;6.918;2022-12-07T00:58:30;10.07;;;5.53;;
27704;SDS011;15109;50.992;6.918;2022-12-07T01:01:51;7.38;;;4.53;;
27704;SDS011;15109;50.992;6.918;2022-12-07T01:05:12;9.63;;;5.18;;
27704;SDS011;15109;50.992;6.918;2022-12-07T01:08:33;12.68;;;5.78;;
27704;SDS011;15109;50.992;6.918;2022-12-07T01:11:54;12.20;;;5.60;;
27704;SDS011;15109;50.992;6.918;2022-12-07T01:15:15;12.77;;;6.03;;
27704;SDS011;15109;50.992;6.918;2022-12-07T01:18:36;12.02;;;5.35;;
27704;SDS011;15109;50.992;6.918;2022-12-07T01:21:58;11.27;;;5.25;;
27704;SDS011;15109;50.992;6.918;2022-12-07T01:25:19;8.82;;;5.03;;
27704;SDS011;15109;50.992;6.918;2022-12-07T01:28:40;9.82;;;5.65;;
27704;SDS011;15109;50.992;6.918;2022-12-07T01:32:01;15.40;;;6.60;;
27704;SDS011;15109;50.992;6.918;2022-12-07T01:35:22;13.23;;;6.60;;
27704;SDS011;15109;50.992;6.918;2022-12-07T01:38:43;9.07;;;4.43;;
27704;SDS011;15109;50.992;6.918;2022-12-07T01:42:09;12.07;;;6.50;;
27704;SDS011;15109;50.992;6.918;2022-12-07T01:48:59;10.15;;;6.72;;
27704;SDS011;15109;50.992;6.918;2022-12-07T01:52:29;8.80;;;5.25;;
27704;SDS011;15109;50.992;6.918;2022-12-07T01:55:57;10.88;;;5.53;;
27704;SDS011;15109;50.992;6.918;2022-12-07T01:59:20;13.43;;;5.63;;
27704;SDS011;15109;50.992;6.918;2022-12-07T02:02:51;11.05;;;5.75;;
27704;SDS011;15109;50.992;6.918;2022-12-07T02:06:17;8.98;;;5.28;;
27704;SDS011;15109;50.992;6.918;2022-12-07T02:09:42;10.32;;;5.78;;
27704;SDS011;15109;50.992;6.918;2022-12-07T02:13:11;9.77;;;5.25;;
27704;SDS011;15109;50.992;6.918;2022-12-07T02:30:58;9.50;;;5.63;;
27704;SDS011;15109;50.992;6.918;2022-12-07T02:41:25;12.60;;;6.70;;
27704;SDS011;15109;50.992;6.918;2022-12-07T02:44:50;10.20;;;5.85;;
27704;SDS011;15109;50.992;6.918;2022-12-07T02:48:13;17.20;;;5.18;;
27704;SDS011;15109;50.992;6.918;2022-12-07T02:51:43;17.67;;;5.63;;
27704;SDS011;15109;50.992;6.918;2022-12-07T02:55:06;10.60;;;6.20;;
27704;SDS011;15109;50.992;6.918;2022-12-07T02:58:35;12.32;;;6.53;;
27704;SDS011;15109;50.992;6.918;2022-12-07T03:05:57;8.48;;;5.32;;
27704;SDS011;15109;50.992;6.918;2022-12-07T03:09:36;11.98;;;6.47;;
27704;SDS011;15109;50.992;6.918;2022-12-07T03:13:12;11.00;;;6.10;;
27704;SDS011;15109;50.992;6.918;2022-12-07T03:16:39;15.75;;;6.40;;
27704;SDS011;15109;50.992;6.918;2022-12-07T03:20:09;9.18;;;5.65;;
27704;SDS011;15109;50.992;6.918;2022-12-07T03:23:34;9.25;;;5.25;;
27704;SDS011;15109;50.992;6.918;2022-12-07T03:27:15;8.80;;;5.22;;
27704;SDS011;15109;50.992;6.918;2022-12-07T03:34:16;9.32;;;5.97;;
27704;SDS011;15109;50.992;6.918;2022-12-07T03:38:00;15.68;;;6.50;;
27704;SDS011;15109;50.992;6.918;2022-12-07T03:41:30;11.13;;;6.57;;
27704;SDS011;15109;50.992;6.918;2022-12-07T03:44:54;11.95;;;6.43;;
27704;SDS011;15109;50.992;6.918;2022-12-07T03:48:26;13.10;;;7.30;;
27704;SDS011;15109;50.992;6.918;2022-12-07T03:55:50;13.45;;;6.35;;
27704;SDS011;15109;50.992;6.918;2022-12-07T03:59:13;13.48;;;6.68;;
27704;SDS011;15109;50.992;6.918;2022-12-07T04:02:36;11.10;;;6.18;;
27704;SDS011;15109;50.992;6.918;2022-12-07T04:05:57;17.60;;;7.28;;
27704;SDS011;15109;50.992;6.918;2022-12-07T04:09:19;11.00;;;5.70;;
27704;SDS011;15109;50.992;6.918;2022-12-07T04:12:43;11.75;;;6.95;;
27704;SDS011;15109;50.992;6.918;2022-12-07T04:16:04;15.60;;;7.45;;
27704;SDS011;15109;50.992;6.918;2022-12-07T04:19:29;14.98;;;8.38;;
27704;SDS011;15109;50.992;6.918;2022-12-07T04:26:12;13.23;;;7.22;;
27704;SDS011;15109;50.992;6.918;2022-12-07T04:29:33;8.50;;;5.18;;
27704;SDS011;15109;50.992;6.918;2022-12-07T04:32:54;16.08;;;7.32;;
27704;SDS011;15109;50.992;6.918;2022-12-07T04:36:18;11.82;;;7.38;;
27704;SDS011;15109;50.992;6.918;2022-12-07T04:39:40;12.88;;;6.28;;
27704;SDS011;15109;50.992;6.918;2022-12-07T04:43:01;12.63;;;7.15;;
27704;SDS011;15109;50.992;6.918;2022-12-07T04:46:23;11.23;;;6.70;;
27704;SDS011;15109;50.992;6.918;2022-12-07T04:49:45;16.63;;;7.88;;
27704;SDS011;15109;50.992;6.918;2022-12-07T04:53:06;10.90;;;5.70;;
27704;SDS011;15109;50.992;6.918;2022-12-07T04:56:27;12.88;;;7.18;;
27704;SDS011;15109;50.992;6.918;2022-12-07T04:59:48;14.98;;;6.85;;
27704;SDS011;15109;50.992;6.918;2022-12-07T05:03:09;13.25;;;8.32;;
27704;SDS011;15109;50.992;6.918;2022-12-07T05:06:30;14.02;;;8.15;;
27704;SDS011;15109;50.992;6.918;2022-12-07T05:09:51;11.68;;;7.05;;
27704;SDS011;15109;50.992;6.918;2022-12-07T05:13:12;15.32;;;7.32;;
27704;SDS011;15109;50.992;6.918;2022-12-07T05:16:33;18.15;;;7.10;;
27704;SDS011;15109;50.992;6.918;2022-12-07T05:19:54;13.02;;;7.30;;
27704;SDS011;15109;50.992;6.918;2022-12-07T05:23:15;10.73;;;6.00;;
27704;SDS011;15109;50.992;6.918;2022-12-07T05:26:36;14.02;;;7.93;;
27704;SDS011;15109;50.992;6.918;2022-12-07T05:29:57;12.27;;;6.25;;
27704;SDS011;15109;50.992;6.918;2022-12-07T05:33:18;12.10;;;6.43;;
27704;SDS011;15109;50.992;6.918;2022-12-07T05:36:39;11.85;;;6.68;;
27704;SDS011;15109;50.992;6.918;2022-12-07T05:40:00;12.02;;;6.03;;
27704;SDS011;15109;50.992;6.918;2022-12-07T05:43:21;12.00;;;5.38;;
27704;SDS011;15109;50.992;6.918;2022-12-07T05:46:43;8.65;;;5.68;;
27704;SDS011;15109;50.992;6.918;2022-12-07T05:50:04;12.23;;;6.07;;
27704;SDS011;15109;50.992;6.918;2022-12-07T05:53:26;12.55;;;6.47;;
27704;SDS011;15109;50.992;6.918;2022-12-07T05:56:47;10.77;;;5.80;;
27704;SDS011;15109;50.992;6.918;2022-12-07T06:00:08;9.68;;;5.70;;
27704;SDS011;15109;50.992;6.918;2022-12-07T06:03:32;11.68;;;6.15;;
27704;SDS011;15109;50.992;6.918;2022-12-07T06:06:54;9.35;;;5.43;;
27704;SDS011;15109;50.992;6.918;2022-12-07T06:10:15;9.93;;;5.18;;
27704;SDS011;15109;50.992;6.918;2022-12-07T06:13:36;11.00;;;6.50;;
27704;SDS011;15109;50.992;6.918;2022-12-07T06:16:57;13.25;;;5.50;;
27704;SDS011;15109;50.992;6.918;2022-12-07T06:20:19;12.73;;;5.47;;
27704;SDS011;15109;50.992;6.918;2022-12-07T06:23:40;11.98;;;5.53;;
27704;SDS011;15109;50.992;6.918;2022-12-07T06:27:01;9.40;;;5.07;;
27704;SDS011;15109;50.992;6.918;2022-12-07T06:30:22;13.27;;;7.35;;
27704;SDS011;15109;50.992;6.918;2022-12-07T06:33:43;12.13;;;6.18;;
27704;SDS011;15109;50.992;6.918;2022-12-07T06:37:04;10.00;;;4.93;;
27704;SDS011;15109;50.992;6.918;2022-12-07T06:40:25;10.50;;;5.85;;
27704;SDS011;15109;50.992;6.918;2022-12-07T06:43:46;13.60;;;6.40;;
27704;SDS011;15109;50.992;6.918;2022-12-07T06:47:08;9.15;;;5.18;;
27704;SDS011;15109;50.992;6.918;2022-12-07T06:50:29;12.70;;;5.70;;
27704;SDS011;15109;50.992;6.918;2022-12-07T06:53:51;16.42;;;6.25;;
27704;SDS011;15109;50.992;6.918;2022-12-07T06:57:12;9.07;;;5.60;;
27704;SDS011;15109;50.992;6.918;2022-12-07T07:00:33;8.27;;;5.18;;
27704;SDS011;15109;50.992;6.918;2022-12-07T07:03:55;10.02;;;5.57;;
27704;SDS011;15109;50.992;6.918;2022-12-07T07:07:16;7.90;;;4.50;;
27704;SDS011;15109;50.992;6.918;2022-12-07T07:10:37;9.75;;;5.75;;
27704;SDS011;15109;50.992;6.918;2022-12-07T07:13:59;13.40;;;6.30;;
27704;SDS011;15109;50.992;6.918;2022-12-07T07:17:22;12.73;;;6.63;;
27704;SDS011;15109;50.992;6.918;2022-12-07T07:20:43;9.30;;;5.57;;
27704;SDS011;15109;50.992;6.918;2022-12-07T07:24:04;9.25;;;5.78;;
27704;SDS011;15109;50.992;6.918;2022-12-07T07:27:26;12.32;;;6.28;;
27704;SDS011;15109;50.992;6.918;2022-12-07T07:30:47;14.80;;;6.88;;
27704;SDS011;15109;50.992;6.918;2022-12-07T07:34:08;10.85;;;5.82;;
27704;SDS011;15109;50.992;6.918;2022-12-07T07:37:29;8.32;;;4.72;;
27704;SDS011;15109;50.992;6.918;2022-12-07T07:40:50;9.48;;;5.55;;
27704;SDS011;15109;50.992;6.918;2022-12-07T07:44:11;9.10;;;5.63;;
27704;SDS011;15109;50.992;6.918;2022-12-07T07:47:33;9.57;;;6.25;;
27704;SDS011;15109;50.992;6.918;2022-12-07T07:50:54;10.68;;;6.63;;
27704;SDS011;15109;50.992;6.918;2022-12-07T07:54:15;11.73;;;6.45;;
27704;SDS011;15109;50.992;6.918;2022-12-07T07:57:36;10.73;;;6.63;;
27704;SDS011;15109;50.992;6.918;2022-12-07T08:01:05;9.45;;;6.22;;
27704;SDS011;15109;50.992;6.918;2022-12-07T08:04:27;11.98;;;6.50;;
27704;SDS011;15109;50.992;6.918;2022-12-07T08:07:48;7.78;;;5.03;;
27704;SDS011;15109;50.992;6.918;2022-12-07T08:11:09;14.10;;;6.78;;
27704;SDS011;15109;50.992;6.918;2022-12-07T08:14:31;17.65;;;6.85;;
27704;SDS011;15109;50.992;6.918;2022-12-07T08:17:52;9.55;;;5.78;;
27704;SDS011;15109;50.992;6.918;2022-12-07T08:21:14;12.80;;;5.95;;
27704;SDS011;15109;50.992;6.918;2022-12-07T08:24:36;12.02;;;6.63;;
27704;SDS011;15109;50.992;6.918;2022-12-07T08:27:58;10.50;;;5.97;;
27704;SDS011;15109;50.992;6.918;2022-12-07T08:31:21;9.25;;;5.82;;
27704;SDS011;15109;50.992;6.918;2022-12-07T08:34:42;9.05;;;5.40;;
27704;SDS011;15109;50.992;6.918;2022-12-07T08:38:04;11.07;;;5.93;;
27704;SDS011;15109;50.992;6.918;2022-12-07T08:41:25;13.50;;;6.32;;
27704;SDS011;15109;50.992;6.918;2022-12-07T08:44:46;8.38;;;5.38;;
27704;SDS011;15109;50.992;6.918;2022-12-07T08:48:08;9.30;;;5.25;;
27704;SDS011;15109;50.992;6.918;2022-12-07T08:51:33;9.15;;;4.88;;
27704;SDS011;15109;50.992;6.918;2022-12-07T08:54:54;9.55;;;5.13;;
27704;SDS011;15109;50.992;6.918;2022-12-07T08:58:15;12.10;;;6.38;;
27704;SDS011;15109;50.992;6.918;2022-12-07T09:01:37;10.38;;;5.40;;
27704;SDS011;15109;50.992;6.918;2022-12-07T09:04:58;9.40;;;5.78;;
27704;SDS011;15109;50.992;6.918;2022-12-07T09:08:20;8.13;;;5.35;;
27704;SDS011;15109;50.992;6.918;2022-12-07T09:11:43;6.68;;;3.80;;
27704;SDS011;15109;50.992;6.918;2022-12-07T09:15:05;9.00;;;4.82;;
27704;SDS011;15109;50.992;6.918;2022-12-07T09:18:27;8.90;;;4.75;;
27704;SDS011;15109;50.992;6.918;2022-12-07T09:21:48;11.00;;;5.07;;
27704;SDS011;15109;50.992;6.918;2022-12-07T09:25:09;9.35;;;5.63;;
27704;SDS011;15109;50.992;6.918;2022-12-07T09:28:30;14.15;;;5.18;;
27704;SDS011;15109;50.992;6.918;2022-12-07T09:31:52;11.93;;;5.70;;
27704;SDS011;15109;50.992;6.918;2022-12-07T09:35:13;7.50;;;4.88;;
27704;SDS011;15109;50.992;6.918;2022-12-07T09:38:34;10.77;;;5.15;;
27704;SDS011;15109;50.992;6.918;2022-12-07T09:41:56;10.07;;;4.60;;
27704;SDS011;15109;50.992;6.918;2022-12-07T09:45:21;7.78;;;5.13;;
27704;SDS011;15109;50.992;6.918;2022-12-07T09:48:44;5.95;;;3.88;;
27704;SDS011;15109;50.992;6.918;2022-12-07T09:58:56;10.95;;;5.03;;
27704;SDS011;15109;50.992;6.918;2022-12-07T10:06:03;8.98;;;4.35;;
27704;SDS011;15109;50.992;6.918;2022-12-07T10:09:26;11.63;;;4.32;;
27704;SDS011;15109;50.992;6.918;2022-12-07T10:12:53;6.35;;;3.33;;
27704;SDS011;15109;50.992;6.918;2022-12-07T10:23:34;6.65;;;3.45;;
27704;SDS011;15109;50.992;6.918;2022-12-07T10:26:56;9.10;;;4.75;;
27704;SDS011;15109;50.992;6.918;2022-12-07T10:30:18;8.05;;;3.60;;
27704;SDS011;15109;50.992;6.918;2022-12-07T10:33:48;6.50;;;3.35;;
27704;SDS011;15109;50.992;6.918;2022-12-07T10:40:34;7.35;;;3.83;;
27704;SDS011;15109;50.992;6.918;2022-12-07T10:43:57;6.18;;;3.35;;
27704;SDS011;15109;50.992;6.918;2022-12-07T10:47:38;5.82;;;3.33;;
27704;SDS011;15109;50.992;6.918;2022-12-07T11:16:39;5.43;;;2.97;;
27704;SDS011;15109;50.992;6.918;2022-12-07T11:20:49;5.05;;;2.65;;
27704;SDS011;15109;50.992;6.918;2022-12-07T11:24:16;17.55;;;4.30;;
27704;SDS011;15109;50.992;6.918;2022-12-07T11:27:41;9.50;;;3.38;;
27704;SDS011;15109;50.992;6.918;2022-12-07T11:38:37;8.23;;;3.00;;
27704;SDS011;15109;50.992;6.918;2022-12-07T11:42:20;5.45;;;2.58;;
27704;SDS011;15109;50.992;6.918;2022-12-07T11:45:46;6.25;;;3.15;;
27704;SDS011;15109;50.992;6.918;2022-12-07T11:52:53;4.53;;;2.60;;
27704;SDS011;15109;50.992;6.918;2022-12-07T11:56:22;5.80;;;3.08;;
27704;SDS011;15109;50.992;6.918;2022-12-07T11:59:51;6.25;;;3.25;;
27704;SDS011;15109;50.992;6.918;2022-12-07T12:03:21;6.13;;;2.25;;
27704;SDS011;15109;50.992;6.918;2022-12-07T12:06:50;10.10;;;3.88;;
27704;SDS011;15109;50.992;6.918;2022-12-07T12:13:48;6.68;;;3.13;;
27704;SDS011;15109;50.992;6.918;2022-12-07T12:17:53;12.07;;;5.18;;
27704;SDS011;15109;50.992;6.918;2022-12-07T12:21:29;8.82;;;4.55;;
27704;SDS011;15109;50.992;6.918;2022-12-07T12:24:53;6.75;;;3.67;;
27704;SDS011;15109;50.992;6.918;2022-12-07T12:28:33;6.85;;;3.58;;
27704;SDS011;15109;50.992;6.918;2022-12-07T13:18:51;7.00;;;3.75;;
27704;SDS011;15109;50.992;6.918;2022-12-07T13:29:36;10.85;;;5.07;;
27704;SDS011;15109;50.992;6.918;2022-12-07T13:32:58;7.72;;;4.55;;
27704;SDS011;15109;50.992;6.918;2022-12-07T13:36:21;10.35;;;5.20;;
27704;SDS011;15109;50.992;6.918;2022-12-07T13:39:45;24.70;;;6.13;;
27704;SDS011;15109;50.992;6.918;2022-12-07T13:43:15;12.77;;;5.85;;
27704;SDS011;15109;50.992;6.918;2022-12-07T13:50:24;15.93;;;5.22;;
27704;SDS011;15109;50.992;6.918;2022-12-07T13:53:54;13.30;;;6.38;;
27704;SDS011;15109;50.992;6.918;2022-12-07T13:57:19;11.30;;;4.63;;
27704;SDS011;15109;50.992;6.918;2022-12-07T14:00:41;8.55;;;4.63;;
27704;SDS011;15109;50.992;6.918;2022-12-07T14:08:40;11.88;;;5.22;;
27704;SDS011;15109;50.992;6.918;2022-12-07T14:11:30;9.95;;;3.42;;
27704;SDS011;15109;50.992;6.918;2022-12-07T14:14:51;8.65;;;4.22;;
27704;SDS011;15109;50.992;6.918;2022-12-07T14:18:26;5.32;;;2.88;;
27704;SDS011;15109;50.992;6.918;2022-12-07T14:21:49;4.40;;;2.75;;
27704;SDS011;15109;50.992;6.918;2022-12-07T14:25:27;8.00;;;3.10;;
27704;SDS011;15109;50.992;6.918;2022-12-07T14:28:48;6.07;;;2.83;;
27704;SDS011;15109;50.992;6.918;2022-12-07T14:35:45;10.70;;;3.55;;
27704;SDS011;15109;50.992;6.918;2022-12-07T14:39:05;6.63;;;3.53;;
27704;SDS011;15109;50.992;6.918;2022-12-07T14:42:27;10.55;;;2.92;;
27704;SDS011;15109;50.992;6.918;2022-12-07T14:45:50;10.00;;;3.25;;
27704;SDS011;15109;50.992;6.918;2022-12-07T14:49:11;5.97;;;3.47;;
27704;SDS011;15109;50.992;6.918;2022-12-07T14:52:32;5.28;;;2.88;;
27704;SDS011;15109;50.992;6.918;2022-12-07T14:55:53;6.00;;;3.38;;
27704;SDS011;15109;50.992;6.918;2022-12-07T14:59:15;6.40;;;2.95;;
27704;SDS011;15109;50.992;6.918;2022-12-07T15:02:37;17.77;;;8.98;;
27704;SDS011;15109;50.992;6.918;2022-12-07T15:05:58;9.15;;;4.35;;
27704;SDS011;15109;50.992;6.918;2022-12-07T15:09:19;4.15;;;2.47;;
27704;SDS011;15109;50.992;6.918;2022-12-07T15:12:40;10.10;;;3.65;;
27704;SDS011;15109;50.992;6.918;2022-12-07T15:16:01;6.90;;;2.92;;
27704;SDS011;15109;50.992;6.918;2022-12-07T15:19:23;6.18;;;3.15;;
27704;SDS011;15109;50.992;6.918;2022-12-07T15:22:46;8.75;;;2.47;;
27704;SDS011;15109;50.992;6.918;2022-12-07T15:26:07;1.27;;;0.90;;
27704;SDS011;15109;50.992;6.918;2022-12-07T15:29:30;3.42;;;1.02;;
27704;SDS011;15109;50.992;6.918;2022-12-07T15:32:51;1.08;;;0.60;;
27704;SDS011;15109;50.992;6.918;2022-12-07T15:36:24;1.00;;;0.55;;
27704;SDS011;15109;50.992;6.918;2022-12-07T15:39:47;1.00;;;0.65;;
27704;SDS011;15109;50.992;6.918;2022-12-07T15:43:08;2.33;;;1.13;;
27704;SDS011;15109;50.992;6.918;2022-12-07T15:46:50;2.30;;;1.45;;
27704;SDS011;15109;50.992;6.918;2022-12-07T15:50:12;2.30;;;1.52;;
27704;SDS011;15109;50.992;6.918;2022-12-07T15:53:35;7.65;;;3.13;;
27704;SDS011;15109;50.992;6.918;2022-12-07T15:56:56;4.97;;;2.28;;
27704;SDS011;15109;50.992;6.918;2022-12-07T16:00:18;4.03;;;2.25;;
27704;SDS011;15109;50.992;6.918;2022-12-07T16:03:39;4.00;;;2.33;;
27704;SDS011;15109;50.992;6.918;2022-12-07T16:11:43;5.88;;;2.40;;
27704;SDS011;15109;50.992;6.918;2022-12-07T16:15:04;5.03;;;2.72;;
27704;SDS011;15109;50.992;6.918;2022-12-07T16:18:26;6.78;;;2.60;;
27704;SDS011;15109;50.992;6.918;2022-12-07T16:21:47;6.57;;;2.35;;
27704;SDS011;15109;50.992;6.918;2022-12-07T16:25:08;3.95;;;2.35;;
27704;SDS011;15109;50.992;6.918;2022-12-07T16:28:29;11.82;;;3.00;;
27704;SDS011;15109;50.992;6.918;2022-12-07T16:31:51;6.43;;;3.35;;
27704;SDS011;15109;50.992;6.918;2022-12-07T16:35:12;7.30;;;2.80;;
27704;SDS011;15109;50.992;6.918;2022-12-07T16:38:34;3.45;;;2.40;;
27704;SDS011;15109;50.992;6.918;2022-12-07T16:41:56;7.30;;;3.83;;
27704;SDS011;15109;50.992;6.918;2022-12-07T16:45:17;5.88;;;3.63;;
27704;SDS011;15109;50.992;6.918;2022-12-07T16:48:40;5.82;;;2.88;;
27704;SDS011;15109;50.992;6.918;2022-12-07T16:52:02;4.13;;;2.20;;
27704;SDS011;15109;50.992;6.918;2022-12-07T16:55:26;7.10;;;2.75;;
27704;SDS011;15109;50.992;6.918;2022-12-07T16:58:49;5.68;;;2.95;;
27704;SDS011;15109;50.992;6.918;2022-12-07T17:02:11;4.60;;;1.88;;
27704;SDS011;15109;50.992;6.918;2022-12-07T17:05:33;6.32;;;2.90;;
27704;SDS011;15109;50.992;6.918;2022-12-07T17:08:56;4.43;;;2.50;;
27704;SDS011;15109;50.992;6.918;2022-12-07T17:12:21;6.97;;;2.85;;
27704;SDS011;15109;50.992;6.918;2022-12-07T17:15:43;5.10;;;2.28;;
27704;SDS011;15109;50.992;6.918;2022-12-07T17:19:05;3.67;;;2.20;;
27704;SDS011;15109;50.992;6.918;2022-12-07T17:22:31;4.55;;;2.75;;
27704;SDS011;15109;50.992;6.918;2022-12-07T17:25:54;6.88;;;3.03;;
27704;SDS011;15109;50.992;6.918;2022-12-07T17:29:16;2.92;;;2.15;;
27704;SDS011;15109;50.992;6.918;2022-12-07T17:32:40;6.03;;;2.90;;
27704;SDS011;15109;50.992;6.918;2022-12-07T17:36:03;8.30;;;2.65;;
27704;SDS011;15109;50.992;6.918;2022-12-07T17:39:41;5.07;;;2.50;;
27704;SDS011;15109;50.992;6.918;2022-12-07T17:43:08;4.47;;;2.50;;
27704;SDS011;15109;50.992;6.918;2022-12-07T17:46:38;3.78;;;2.45;;
27704;SDS011;15109;50.992;6.918;2022-12-07T17:50:05;4.80;;;2.65;;
27704;SDS011;15109;50.992;6.918;2022-12-07T17:53:27;4.25;;;2.85;;
27704;SDS011;15109;50.992;6.918;2022-12-07T17:56:51;7.28;;;4.20;;
27704;SDS011;15109;50.992;6.918;2022-12-07T18:00:14;8.38;;;4.43;;
27704;SDS011;15109;50.992;6.918;2022-12-07T18:03:36;6.03;;;3.88;;
27704;SDS011;15109;50.992;6.918;2022-12-07T18:07:05;16.55;;;4.82;;
27704;SDS011;15109;50.992;6.918;2022-12-07T18:10:29;13.57;;;4.85;;
27704;SDS011;15109;50.992;6.918;2022-12-07T18:13:50;10.77;;;5.40;;
27704;SDS011;15109;50.992;6.918;2022-12-07T18:17:14;9.90;;;4.22;;
27704;SDS011;15109;50.992;6.918;2022-12-07T18:20:36;9.98;;;5.00;;
27704;SDS011;15109;50.992;6.918;2022-12-07T18:24:01;10.82;;;4.75;;
27704;SDS011;15109;50.992;6.918;2022-12-07T18:27:26;5.95;;;3.85;;
27704;SDS011;15109;50.992;6.918;2022-12-07T18:30:49;9.95;;;3.70;;
27704;SDS011;15109;50.992;6.918;2022-12-07T18:34:14;9.13;;;4.63;;
27704;SDS011;15109;50.992;6.918;2022-12-07T18:37:37;8.65;;;4.18;;
27704;SDS011;15109;50.992;6.918;2022-12-07T18:40:59;8.82;;;4.00;;
27704;SDS011;15109;50.992;6.918;2022-12-07T18:44:21;10.20;;;4.82;;
27704;SDS011;15109;50.992;6.918;2022-12-07T18:47:42;5.78;;;3.55;;
27704;SDS011;15109;50.992;6.918;2022-12-07T18:51:04;7.85;;;4.38;;
27704;SDS011;15109;50.992;6.918;2022-12-07T18:54:27;10.85;;;4.75;;
27704;SDS011;15109;50.992;6.918;2022-12-07T18:57:48;6.35;;;4.03;;
27704;SDS011;15109;50.992;6.918;2022-12-07T19:01:09;6.93;;;4.35;;
27704;SDS011;15109;50.992;6.918;2022-12-07T19:04:30;7.32;;;4.53;;
27704;SDS011;15109;50.992;6.918;2022-12-07T19:07:53;6.75;;;4.03;;
27704;SDS011;15109;50.992;6.918;2022-12-07T19:11:22;8.15;;;4.22;;
27704;SDS011;15109;50.992;6.918;2022-12-07T19:15:06;15.18;;;5.22;;
27704;SDS011;15109;50.992;6.918;2022-12-07T19:18:29;10.38;;;4.20;;
27704;SDS011;15109;50.992;6.918;2022-12-07T19:21:50;10.95;;;4.40;;
27704;SDS011;15109;50.992;6.918;2022-12-07T19:25:13;6.38;;;3.60;;
27704;SDS011;15109;50.992;6.918;2022-12-07T19:28:35;9.10;;;4.35;;
27704;SDS011;15109;50.992;6.918;2022-12-07T19:31:59;9.40;;;4.90;;
27704;SDS011;15109;50.992;6.918;2022-12-07T19:35:28;6.15;;;4.13;;
27704;SDS011;15109;50.992;6.918;2022-12-07T19:38:49;6.72;;;4.32;;
27704;SDS011;15109;50.992;6.918;2022-12-07T19:42:11;10.25;;;5.43;;
27704;SDS011;15109;50.992;6.918;2022-12-07T19:45:34;10.95;;;5.80;;
27704;SDS011;15109;50.992;6.918;2022-12-07T19:48:56;11.00;;;5.38;;
27704;SDS011;15109;50.992;6.918;2022-12-07T19:52:18;14.88;;;5.57;;
27704;SDS011;15109;50.992;6.918;2022-12-07T19:55:39;9.20;;;5.32;;
27704;SDS011;15109;50.992;6.918;2022-12-07T19:59:01;9.52;;;5.32;;
27704;SDS011;15109;50.992;6.918;2022-12-07T20:02:23;9.55;;;5.03;;
27704;SDS011;15109;50.992;6.918;2022-12-07T20:05:44;10.30;;;5.57;;
27704;SDS011;15109;50.992;6.918;2022-12-07T20:09:08;6.95;;;4.68;;
27704;SDS011;15109;50.992;6.918;2022-12-07T20:12:36;9.45;;;5.47;;
27704;SDS011;15109;50.992;6.918;2022-12-07T20:16:19;10.32;;;5.22;;
27704;SDS011;15109;50.992;6.918;2022-12-07T20:19:40;10.63;;;4.82;;
27704;SDS011;15109;50.992;6.918;2022-12-07T20:23:16;8.60;;;5.10;;
27704;SDS011;15109;50.992;6.918;2022-12-07T20:26:40;9.73;;;4.55;;
27704;SDS011;15109;50.992;6.918;2022-12-07T20:30:04;9.80;;;4.60;;
27704;SDS011;15109;50.992;6.918;2022-12-07T20:33:29;14.15;;;4.97;;
27704;SDS011;15109;50.992;6.918;2022-12-07T20:36:51;14.25;;;5.80;;
27704;SDS011;15109;50.992;6.918;2022-12-07T20:40:15;9.63;;;5.10;;
27704;SDS011;15109;50.992;6.918;2022-12-07T20:43:36;9.35;;;4.65;;
27704;SDS011;15109;50.992;6.918;2022-12-07T20:46:57;13.73;;;5.18;;
27704;SDS011;15109;50.992;6.918;2022-12-07T20:50:18;14.65;;;5.57;;
27704;SDS011;15109;50.992;6.918;2022-12-07T20:53:40;6.90;;;3.65;;
27704;SDS011;15109;50.992;6.918;2022-12-07T20:57:01;8.15;;;4.18;;
27704;SDS011;15109;50.992;6.918;2022-12-07T21:00:22;7.22;;;4.63;;
27704;SDS011;15109;50.992;6.918;2022-12-07T21:03:43;13.07;;;5.80;;
27704;SDS011;15109;50.992;6.918;2022-12-07T21:07:06;9.57;;;5.00;;
27704;SDS011;15109;50.992;6.918;2022-12-07T21:10:30;13.68;;;5.75;;
27704;SDS011;15109;50.992;6.918;2022-12-07T21:13:51;9.18;;;5.05;;
27704;SDS011;15109;50.992;6.918;2022-12-07T21:17:13;8.55;;;4.72;;
27704;SDS011;15109;50.992;6.918;2022-12-07T21:20:34;8.18;;;4.40;;
27704;SDS011;15109;50.992;6.918;2022-12-07T21:23:55;7.22;;;4.07;;
27704;SDS011;15109;50.992;6.918;2022-12-07T21:27:16;8.18;;;4.28;;
27704;SDS011;15109;50.992;6.918;2022-12-07T21:30:37;9.73;;;5.07;;
27704;SDS011;15109;50.992;6.918;2022-12-07T21:34:00;10.40;;;4.95;;
27704;SDS011;15109;50.992;6.918;2022-12-07T21:37:22;6.97;;;4.35;;
27704;SDS011;15109;50.992;6.918;2022-12-07T21:40:43;8.23;;;4.35;;
27704;SDS011;15109;50.992;6.918;2022-12-07T21:44:08;10.45;;;5.78;;
27704;SDS011;15109;50.992;6.918;2022-12-07T21:47:32;9.80;;;5.65;;
27704;SDS011;15109;50.992;6.918;2022-12-07T21:50:53;7.70;;;4.18;;
27704;SDS011;15109;50.992;6.918;2022-12-07T21:54:14;8.90;;;4.55;;
27704;SDS011;15109;50.992;6.918;2022-12-07T21:57:35;9.35;;;5.05;;
27704;SDS011;15109;50.992;6.918;2022-12-07T22:00:57;10.40;;;5.43;;
27704;SDS011;15109;50.992;6.918;2022-12-07T22:04:20;14.25;;;6.53;;
27704;SDS011;15109;50.992;6.918;2022-12-07T22:07:43;15.88;;;7.38;;
27704;SDS011;15109;50.992;6.918;2022-12-07T22:11:04;9.73;;;5.18;;
27704;SDS011;15109;50.992;6.918;2022-12-07T22:14:28;8.27;;;4.80;;
27704;SDS011;15109;50.992;6.918;2022-12-07T22:18:08;17.45;;;6.63;;
27704;SDS011;15109;50.992;6.918;2022-12-07T22:21:29;9.82;;;5.55;;
27704;SDS011;15109;50.992;6.918;2022-12-07T22:24:53;8.60;;;4.93;;
27704;SDS011;15109;50.992;6.918;2022-12-07T22:28:14;8.45;;;4.85;;
27704;SDS011;15109;50.992;6.918;2022-12-07T22:31:35;12.30;;;5.13;;
27704;SDS011;15109;50.992;6.918;2022-12-07T22:34:57;10.52;;;5.25;;
27704;SDS011;15109;50.992;6.918;2022-12-07T22:38:21;9.10;;;5.18;;
27704;SDS011;15109;50.992;6.918;2022-12-07T22:41:46;15.50;;;5.35;;
27704;SDS011;15109;50.992;6.918;2022-12-07T22:45:09;8.05;;;4.70;;
27704;SDS011;15109;50.992;6.918;2022-12-07T22:48:33;12.55;;;5.57;;
27704;SDS011;15109;50.992;6.918;2022-12-07T22:51:54;9.00;;;5.22;;
27704;SDS011;15109;50.992;6.918;2022-12-07T22:55:21;7.95;;;4.60;;
27704;SDS011;15109;50.992;6.918;2022-12-07T22:58:48;8.80;;;4.47;;
27704;SDS011;15109;50.992;6.918;2022-12-07T23:02:18;8.73;;;5.30;;
27704;SDS011;15109;50.992;6.918;2022-12-07T23:05:40;13.15;;;4.85;;
27704;SDS011;15109;50.992;6.918;2022-12-07T23:09:10;14.23;;;5.00;;
27704;SDS011;15109;50.992;6.918;2022-12-07T23:12:35;8.75;;;5.00;;